Wetterstation Vordersexau
Wetterdaten: Woche 19.06.23 - 25.06.23 (KW25)
Datum Zeit Temp. A. Feuchte A. Luftdruck Regen Wind Richtung Taupunkt Windchill Windben
19.06.2023 00:00 19,3 C 74 % 1008,4 hPa 0,0 l/m 1,1 km/h (1 Bft) O 14,5 C 19,3 C 2,5 km/h (1 Bft)
19.06.2023 01:00 18,3 C 77 % 1008,3 hPa 0,0 l/m 1,1 km/h (1 Bft) N 14,2 C 18,3 C 2,5 km/h (1 Bft)
19.06.2023 02:00 18,8 C 76 % 1008,6 hPa 0,0 l/m 0,0 km/h (0 Bft) SO 14,5 C 18,8 C 0,0 km/h (0 Bft)
19.06.2023 03:00 18,4 C 83 % 1010,6 hPa 0,0 l/m 5,0 km/h (1 Bft) O-SO 15,5 C 18,4 C 7,2 km/h (2 Bft)
19.06.2023 04:00 18,2 C 91 % 1011,2 hPa 0,0 l/m 1,1 km/h (1 Bft) N 16,7 C 18,2 C 2,5 km/h (1 Bft)
19.06.2023 05:00 17,4 C 97 % 1010,8 hPa 3,0 l/m 0,0 km/h (0 Bft) O-SO 16,9 C 17,4 C 0,0 km/h (0 Bft)
19.06.2023 06:00 17,3 C 98 % 1010,6 hPa 0,6 l/m 1,1 km/h (1 Bft) N 17,0 C 17,3 C 3,6 km/h (1 Bft)
19.06.2023 07:00 17,5 C 98 % 1010,6 hPa 0,3 l/m 0,0 km/h (0 Bft) N 17,2 C 17,5 C 0,0 km/h (0 Bft)
19.06.2023 08:00 18,0 C 98 % 1010,3 hPa 0,0 l/m 0,0 km/h (0 Bft) N 17,7 C 18,0 C 2,5 km/h (1 Bft)
19.06.2023 09:00 19,3 C 97 % 1010,4 hPa 0,0 l/m 0,0 km/h (0 Bft) W 18,8 C 19,3 C 2,5 km/h (1 Bft)
19.06.2023 10:00 22,4 C 73 % 1011,0 hPa 0,0 l/m 3,6 km/h (1 Bft) SO 17,3 C 22,4 C 6,1 km/h (2 Bft)
19.06.2023 11:00 25,0 C 65 % 1010,8 hPa 0,0 l/m 2,5 km/h (1 Bft) S-SO 17,9 C 25,0 C 3,6 km/h (1 Bft)
19.06.2023 12:00 26,4 C 57 % 1010,5 hPa 0,0 l/m 3,6 km/h (1 Bft) S-SW 17,2 C 26,4 C 7,2 km/h (2 Bft)
19.06.2023 13:00 27,7 C 43 % 1010,3 hPa 0,0 l/m 7,2 km/h (2 Bft) W 14,0 C 27,6 C 13,3 km/h (3 Bft)
19.06.2023 14:00 29,0 C 43 % 1009,6 hPa 0,0 l/m 7,2 km/h (2 Bft) SW 15,1 C 28,9 C 11,2 km/h (2 Bft)
19.06.2023 15:00 28,9 C 44 % 1009,4 hPa 0,0 l/m 3,6 km/h (1 Bft) W-SW 15,4 C 28,9 C 6,1 km/h (2 Bft)
19.06.2023 16:00 27,9 C 43 % 1009,0 hPa 0,0 l/m 3,6 km/h (1 Bft) W-SW 14,1 C 27,9 C 6,1 km/h (2 Bft)
19.06.2023 17:00 29,5 C 40 % 1008,3 hPa 0,0 l/m 6,1 km/h (2 Bft) SO 14,5 C 29,5 C 7,2 km/h (2 Bft)
19.06.2023 18:00 30,3 C 43 % 1007,9 hPa 0,0 l/m 1,1 km/h (1 Bft) N 16,3 C 30,3 C 3,6 km/h (1 Bft)
19.06.2023 19:00 30,7 C 39 % 1007,4 hPa 0,0 l/m 0,0 km/h (0 Bft) NW 15,1 C 30,7 C 0,0 km/h (0 Bft)
19.06.2023 20:00 29,5 C 42 % 1007,0 hPa 0,0 l/m 1,1 km/h (1 Bft) N 15,2 C 29,5 C 2,5 km/h (1 Bft)
19.06.2023 21:00 28,1 C 49 % 1006,9 hPa 0,0 l/m 0,0 km/h (0 Bft) NO 16,4 C 28,1 C 0,0 km/h (0 Bft)
19.06.2023 22:00 24,0 C 63 % 1006,9 hPa 0,0 l/m 1,1 km/h (1 Bft) N 16,5 C 24,0 C 2,5 km/h (1 Bft)
19.06.2023 23:00 21,7 C 71 % 1007,6 hPa 0,0 l/m 0,0 km/h (0 Bft) N 16,2 C 21,7 C 2,5 km/h (1 Bft)
20.06.2023 00:00 21,0 C 73 % 1007,5 hPa 0,0 l/m 0,0 km/h (0 Bft) NO 16,0 C 21,0 C 2,5 km/h (1 Bft)
20.06.2023 01:00 20,4 C 78 % 1007,4 hPa 0,0 l/m 1,1 km/h (1 Bft) O-SO 16,4 C 20,4 C 2,5 km/h (1 Bft)
20.06.2023 02:00 19,6 C 93 % 1010,0 hPa 1,8 l/m 8,6 km/h (2 Bft) N 18,4 C 18,7 C 13,3 km/h (3 Bft)
20.06.2023 03:00 19,9 C 88 % 1009,5 hPa 0,0 l/m 0,0 km/h (0 Bft) O-SO 17,8 C 19,9 C 2,5 km/h (1 Bft)
20.06.2023 04:00 18,6 C 94 % 1009,2 hPa 0,0 l/m 1,1 km/h (1 Bft) N 17,6 C 18,6 C 3,6 km/h (1 Bft)
20.06.2023 05:00 18,1 C 95 % 1008,6 hPa 0,0 l/m 0,0 km/h (0 Bft) NO 17,3 C 18,1 C 2,5 km/h (1 Bft)
20.06.2023 06:00 18,1 C 93 % 1008,7 hPa 0,0 l/m 2,5 km/h (1 Bft) SO 16,9 C 18,1 C 3,6 km/h (1 Bft)
20.06.2023 07:00 17,5 C 95 % 1008,9 hPa 0,0 l/m 2,5 km/h (1 Bft) N 16,7 C 17,5 C 3,6 km/h (1 Bft)
20.06.2023 08:00 18,9 C 92 % 1009,1 hPa 0,0 l/m 0,0 km/h (0 Bft) O-SO 17,6 C 18,9 C 0,0 km/h (0 Bft)
20.06.2023 09:00 22,0 C 83 % 1008,9 hPa 0,0 l/m 2,5 km/h (1 Bft) N 19,0 C 22,0 C 2,5 km/h (1 Bft)
20.06.2023 10:00 23,8 C 79 % 1008,9 hPa 0,0 l/m 0,0 km/h (0 Bft) W 19,9 C 23,8 C 0,0 km/h (0 Bft)
20.06.2023 11:00 27,3 C 61 % 1008,4 hPa 0,0 l/m 1,1 km/h (1 Bft) W-NW 19,1 C 27,3 C 3,6 km/h (1 Bft)
20.06.2023 12:00 29,4 C 43 % 1008,2 hPa 0,0 l/m 9,7 km/h (2 Bft) W 15,5 C 29,1 C 13,3 km/h (3 Bft)
20.06.2023 13:00 30,7 C 44 % 1008,1 hPa 0,0 l/m 2,5 km/h (1 Bft) NW 17,0 C 30,7 C 3,6 km/h (1 Bft)
20.06.2023 14:00 31,3 C 40 % 1007,6 hPa 0,0 l/m 3,6 km/h (1 Bft) S-SO 16,1 C 31,3 C 6,1 km/h (2 Bft)
20.06.2023 15:00 31,9 C 42 % 1007,1 hPa 0,0 l/m 5,0 km/h (1 Bft) O-SO 17,4 C 31,9 C 7,2 km/h (2 Bft)
20.06.2023 16:00 32,9 C 40 % 1006,8 hPa 0,0 l/m 2,5 km/h (1 Bft) S 17,5 C 32,9 C 3,6 km/h (1 Bft)
20.06.2023 17:00 33,4 C 39 % 1006,7 hPa 0,0 l/m 5,0 km/h (1 Bft) W-SW 17,5 C 33,4 C 9,7 km/h (2 Bft)
20.06.2023 18:00 32,1 C 44 % 1006,3 hPa 0,0 l/m 2,5 km/h (1 Bft) W-SW 18,3 C 32,1 C 3,6 km/h (1 Bft)
20.06.2023 19:00 29,3 C 51 % 1006,7 hPa 0,0 l/m 1,1 km/h (1 Bft) S-SO 18,1 C 29,3 C 2,5 km/h (1 Bft)
20.06.2023 20:00 27,2 C 70 % 1006,5 hPa 0,0 l/m 2,5 km/h (1 Bft) N 21,2 C 27,2 C 3,6 km/h (1 Bft)
20.06.2023 21:00 25,6 C 70 % 1007,3 hPa 0,0 l/m 0,0 km/h (0 Bft) N 19,7 C 25,6 C 2,5 km/h (1 Bft)
20.06.2023 22:00 24,4 C 78 % 1007,9 hPa 0,0 l/m 0,0 km/h (0 Bft) O-SO 20,3 C 24,4 C 0,0 km/h (0 Bft)
20.06.2023 23:00 22,9 C 81 % 1008,6 hPa 0,0 l/m 1,1 km/h (1 Bft) N 19,5 C 22,9 C 2,5 km/h (1 Bft)
21.06.2023 00:00 22,0 C 81 % 1009,2 hPa 0,0 l/m 0,0 km/h (0 Bft) N 18,6 C 22,0 C 0,0 km/h (0 Bft)
21.06.2023 01:00 21,6 C 82 % 1009,4 hPa 0,0 l/m 0,0 km/h (0 Bft) O-SO 18,4 C 21,6 C 0,0 km/h (0 Bft)
21.06.2023 02:00 20,1 C 86 % 1009,4 hPa 0,0 l/m 1,1 km/h (1 Bft) N 17,7 C 20,1 C 3,6 km/h (1 Bft)
21.06.2023 03:00 19,8 C 85 % 1010,0 hPa 0,0 l/m 0,0 km/h (0 Bft) O-SO 17,2 C 19,8 C 0,0 km/h (0 Bft)
21.06.2023 04:00 19,2 C 88 % 1010,7 hPa 0,0 l/m 1,1 km/h (1 Bft) N 17,2 C 19,2 C 2,5 km/h (1 Bft)
21.06.2023 05:00 19,2 C 90 % 1011,4 hPa 0,0 l/m 0,0 km/h (0 Bft) O-SO 17,5 C 19,2 C 0,0 km/h (0 Bft)
21.06.2023 06:00 18,9 C 93 % 1012,1 hPa 0,0 l/m 2,5 km/h (1 Bft) N 17,7 C 18,9 C 2,5 km/h (1 Bft)
21.06.2023 07:00 19,0 C 93 % 1011,9 hPa 0,9 l/m 0,0 km/h (0 Bft) NW 17,8 C 19,0 C 2,5 km/h (1 Bft)
21.06.2023 08:00 20,0 C 91 % 1012,3 hPa 0,0 l/m 2,5 km/h (1 Bft) N 18,5 C 20,0 C 3,6 km/h (1 Bft)
21.06.2023 09:00 21,5 C 88 % 1012,8 hPa 0,0 l/m 0,0 km/h (0 Bft) S-SW 19,4 C 21,5 C 2,5 km/h (1 Bft)
21.06.2023 10:00 20,0 C 95 % 1015,6 hPa 2,1 l/m 6,1 km/h (2 Bft) SO 19,2 C 20,0 C 9,7 km/h (2 Bft)
21.06.2023 11:00 19,3 C 97 % 1012,2 hPa 3,0 l/m 3,6 km/h (1 Bft) SO 18,8 C 19,3 C 6,1 km/h (2 Bft)
21.06.2023 12:00 21,2 C 88 % 1014,2 hPa 0,0 l/m 2,5 km/h (1 Bft) W 19,1 C 21,2 C 3,6 km/h (1 Bft)
21.06.2023 13:00 23,9 C 75 % 1014,3 hPa 0,0 l/m 3,6 km/h (1 Bft) SW 19,2 C 23,9 C 6,1 km/h (2 Bft)
21.06.2023 14:00 25,3 C 62 % 1014,0 hPa 0,0 l/m 2,5 km/h (1 Bft) NW 17,5 C 25,3 C 3,6 km/h (1 Bft)
21.06.2023 15:00 27,0 C 55 % 1013,7 hPa 0,0 l/m 2,5 km/h (1 Bft) SO 17,2 C 27,0 C 6,1 km/h (2 Bft)
21.06.2023 16:00 28,9 C 52 % 1013,7 hPa 0,0 l/m 1,1 km/h (1 Bft) W-SW 18,0 C 28,9 C 3,6 km/h (1 Bft)
21.06.2023 17:00 29,3 C 46 % 1013,5 hPa 0,0 l/m 3,6 km/h (1 Bft) W-NW 16,5 C 29,3 C 6,1 km/h (2 Bft)
21.06.2023 18:00 28,2 C 52 % 1013,6 hPa 0,0 l/m 1,1 km/h (1 Bft) NO 17,4 C 28,2 C 2,5 km/h (1 Bft)
21.06.2023 19:00 28,2 C 51 % 1012,4 hPa 0,0 l/m 2,5 km/h (1 Bft) N 17,1 C 28,2 C 3,6 km/h (1 Bft)
21.06.2023 20:00 27,9 C 55 % 1011,9 hPa 0,0 l/m 0,0 km/h (0 Bft) N 18,0 C 27,9 C 0,0 km/h (0 Bft)
21.06.2023 21:00 26,8 C 64 % 1011,8 hPa 0,0 l/m 0,0 km/h (0 Bft) O-SO 19,4 C 26,8 C 0,0 km/h (0 Bft)
21.06.2023 22:00 23,9 C 80 % 1011,0 hPa 0,0 l/m 5,0 km/h (1 Bft) O-SO 20,2 C 23,9 C 6,1 km/h (2 Bft)
21.06.2023 23:00 21,6 C 88 % 1011,1 hPa 0,0 l/m 1,1 km/h (1 Bft) O-SO 19,5 C 21,6 C 3,6 km/h (1 Bft)
22.06.2023 00:00 20,1 C 91 % 1010,7 hPa 0,0 l/m 1,1 km/h (1 Bft) O-SO 18,6 C 20,1 C 2,5 km/h (1 Bft)
22.06.2023 01:00 19,3 C 92 % 1011,4 hPa 0,0 l/m 2,5 km/h (1 Bft) N 18,0 C 19,3 C 3,6 km/h (1 Bft)
22.06.2023 02:00 18,8 C 94 % 1011,1 hPa 0,0 l/m 0,0 km/h (0 Bft) N 17,8 C 18,8 C 0,0 km/h (0 Bft)
22.06.2023 03:00 18,5 C 95 % 1011,0 hPa 0,0 l/m 0,0 km/h (0 Bft) N 17,7 C 18,5 C 0,0 km/h (0 Bft)
22.06.2023 04:00 17,9 C 96 % 1011,2 hPa 0,0 l/m 0,0 km/h (0 Bft) N 17,3 C 17,9 C 0,0 km/h (0 Bft)
22.06.2023 05:00 18,0 C 94 % 1010,4 hPa 0,0 l/m 0,0 km/h (0 Bft) N 17,0 C 18,0 C 0,0 km/h (0 Bft)
22.06.2023 06:00 17,4 C 95 % 1010,2 hPa 0,0 l/m 0,0 km/h (0 Bft) N 16,6 C 17,4 C 0,0 km/h (0 Bft)
22.06.2023 07:00 17,1 C 96 % 1010,0 hPa 0,0 l/m 0,0 km/h (0 Bft) N 16,5 C 17,1 C 0,0 km/h (0 Bft)
22.06.2023 08:00 19,1 C 95 % 1010,0 hPa 0,0 l/m 0,0 km/h (0 Bft) W 18,3 C 19,1 C 0,0 km/h (0 Bft)
22.06.2023 09:00 20,1 C 93 % 1010,2 hPa 0,0 l/m 3,6 km/h (1 Bft) N-NW 18,9 C 20,1 C 7,2 km/h (2 Bft)
22.06.2023 10:00 22,1 C 89 % 1010,7 hPa 0,0 l/m 1,1 km/h (1 Bft) W 20,2 C 22,1 C 3,6 km/h (1 Bft)
22.06.2023 11:00 23,9 C 77 % 1010,4 hPa 0,0 l/m 5,0 km/h (1 Bft) N 19,6 C 23,9 C 7,2 km/h (2 Bft)
22.06.2023 12:00 26,7 C 68 % 1009,3 hPa 0,0 l/m 1,1 km/h (1 Bft) N-NO 20,3 C 26,7 C 3,6 km/h (1 Bft)
22.06.2023 13:00 27,6 C 66 % 1008,7 hPa 0,0 l/m 1,1 km/h (1 Bft) W 20,7 C 27,6 C 2,5 km/h (1 Bft)
22.06.2023 14:00 29,1 C 64 % 1009,5 hPa 0,0 l/m 1,1 km/h (1 Bft) N 21,6 C 29,1 C 2,5 km/h (1 Bft)
22.06.2023 15:00 28,6 C 65 % 1009,3 hPa 0,0 l/m 0,0 km/h (0 Bft) W 21,4 C 28,6 C 2,5 km/h (1 Bft)
22.06.2023 16:00 27,4 C 65 % 1009,9 hPa 0,0 l/m 8,6 km/h (2 Bft) S 20,2 C 27,0 C 13,3 km/h (3 Bft)
22.06.2023 17:00 26,0 C 67 % 1009,2 hPa 0,0 l/m 6,1 km/h (2 Bft) S 19,4 C 26,0 C 9,7 km/h (2 Bft)
22.06.2023 18:00 27,8 C 62 % 1009,0 hPa 0,0 l/m 6,1 km/h (2 Bft) S 19,8 C 27,8 C 7,2 km/h (2 Bft)
22.06.2023 19:00 27,4 C 58 % 1009,0 hPa 0,0 l/m 7,2 km/h (2 Bft) S-SO 18,4 C 27,3 C 9,7 km/h (2 Bft)
22.06.2023 20:00 26,0 C 61 % 1009,2 hPa 0,0 l/m 3,6 km/h (1 Bft) S 17,9 C 26,0 C 6,1 km/h (2 Bft)
22.06.2023 21:00 19,0 C 88 % 1011,4 hPa 4,2 l/m 8,6 km/h (2 Bft) SW 17,0 C 18,1 C 13,3 km/h (3 Bft)
22.06.2023 22:00 19,2 C 87 % 1012,2 hPa 1,2 l/m 8,6 km/h (2 Bft) N 17,0 C 18,3 C 13,3 km/h (3 Bft)
22.06.2023 23:00 17,9 C 95 % 1012,7 hPa 1,2 l/m 0,0 km/h (0 Bft) W-SW 17,1 C 17,9 C 0,0 km/h (0 Bft)
23.06.2023 00:00 18,5 C 92 % 1013,1 hPa 0,0 l/m 7,2 km/h (2 Bft) W-SW 17,2 C 18,1 C 9,7 km/h (2 Bft)
23.06.2023 01:00 17,5 C 94 % 1013,4 hPa 0,6 l/m 9,7 km/h (2 Bft) W 16,5 C 16,0 C 18,4 km/h (3 Bft)
23.06.2023 02:00 17,1 C 98 % 1013,8 hPa 3,0 l/m 8,6 km/h (2 Bft) N 16,8 C 16,0 C 13,3 km/h (3 Bft)
23.06.2023 03:00 17,0 C 99 % 1015,2 hPa 4,2 l/m 0,0 km/h (0 Bft) W 16,8 C 17,0 C 0,0 km/h (0 Bft)
23.06.2023 04:00 17,2 C 99 % 1015,8 hPa 0,9 l/m 2,5 km/h (1 Bft) N 17,0 C 17,2 C 3,6 km/h (1 Bft)
23.06.2023 05:00 16,7 C 99 % 1016,4 hPa 1,2 l/m 0,0 km/h (0 Bft) N 16,5 C 16,7 C 0,0 km/h (0 Bft)
23.06.2023 06:00 16,7 C 99 % 1016,9 hPa 0,0 l/m 0,0 km/h (0 Bft) N 16,5 C 16,7 C 0,0 km/h (0 Bft)
23.06.2023 07:00 17,0 C 99 % 1017,5 hPa 0,0 l/m 0,0 km/h (0 Bft) W 16,8 C 17,0 C 0,0 km/h (0 Bft)
23.06.2023 08:00 17,1 C 99 % 1017,8 hPa 0,0 l/m 2,5 km/h (1 Bft) W-SW 16,9 C 17,1 C 2,5 km/h (1 Bft)
23.06.2023 09:00 17,8 C 95 % 1018,5 hPa 0,0 l/m 6,1 km/h (2 Bft) W 17,0 C 17,8 C 11,2 km/h (2 Bft)
23.06.2023 10:00 19,1 C 88 % 1019,2 hPa 0,0 l/m 6,1 km/h (2 Bft) SW 17,1 C 19,1 C 9,7 km/h (2 Bft)
23.06.2023 11:00 20,4 C 77 % 1019,5 hPa 0,0 l/m 2,5 km/h (1 Bft) W 16,2 C 20,4 C 3,6 km/h (1 Bft)
23.06.2023 12:00 20,3 C 76 % 1019,8 hPa 0,0 l/m 6,1 km/h (2 Bft) W-SW 15,9 C 20,3 C 9,7 km/h (2 Bft)
23.06.2023 13:00 23,3 C 55 % 1019,8 hPa 0,0 l/m 2,5 km/h (1 Bft) W-SW 13,7 C 23,3 C 7,2 km/h (2 Bft)
23.06.2023 14:00 23,0 C 61 % 1019,4 hPa 0,0 l/m 3,6 km/h (1 Bft) W 15,1 C 23,0 C 6,1 km/h (2 Bft)
23.06.2023 15:00 26,8 C 46 % 1019,1 hPa 0,0 l/m 3,6 km/h (1 Bft) W-NW 14,2 C 26,8 C 6,1 km/h (2 Bft)
23.06.2023 16:00 26,9 C 42 % 1019,1 hPa 0,0 l/m 5,0 km/h (1 Bft) W-NW 12,9 C 26,9 C 7,2 km/h (2 Bft)
23.06.2023 17:00 25,9 C 45 % 1019,1 hPa 0,0 l/m 2,5 km/h (1 Bft) N 13,0 C 25,9 C 3,6 km/h (1 Bft)
23.06.2023 18:00 26,9 C 40 % 1019,3 hPa 0,0 l/m 2,5 km/h (1 Bft) N 12,1 C 26,9 C 6,1 km/h (2 Bft)
23.06.2023 19:00 26,0 C 42 % 1019,0 hPa 0,0 l/m 3,6 km/h (1 Bft) NO 12,1 C 26,0 C 6,1 km/h (2 Bft)
23.06.2023 20:00 25,5 C 41 % 1019,0 hPa 0,0 l/m 2,5 km/h (1 Bft) N 11,3 C 25,5 C 6,1 km/h (2 Bft)
23.06.2023 21:00 24,8 C 45 % 1019,1 hPa 0,0 l/m 1,1 km/h (1 Bft) N 12,0 C 24,8 C 2,5 km/h (1 Bft)
23.06.2023 22:00 20,5 C 64 % 1019,3 hPa 0,0 l/m 0,0 km/h (0 Bft) N 13,5 C 20,5 C 2,5 km/h (1 Bft)
23.06.2023 23:00 18,2 C 74 % 1019,9 hPa 0,0 l/m 0,0 km/h (0 Bft) N 13,5 C 18,2 C 0,0 km/h (0 Bft)
24.06.2023 00:00 16,8 C 81 % 1020,1 hPa 0,0 l/m 0,0 km/h (0 Bft) O 13,5 C 16,8 C 0,0 km/h (0 Bft)
24.06.2023 01:00 15,9 C 83 % 1020,0 hPa 0,0 l/m 2,5 km/h (1 Bft) O-SO 13,0 C 15,9 C 3,6 km/h (1 Bft)
24.06.2023 02:00 15,4 C 83 % 1019,8 hPa 0,0 l/m 3,6 km/h (1 Bft) SO 12,5 C 15,4 C 6,1 km/h (2 Bft)
24.06.2023 03:00 14,9 C 85 % 1019,8 hPa 0,0 l/m 1,1 km/h (1 Bft) O-SO 12,4 C 14,9 C 2,5 km/h (1 Bft)
24.06.2023 04:00 14,2 C 87 % 1020,0 hPa 0,0 l/m 1,1 km/h (1 Bft) N 12,1 C 14,2 C 3,6 km/h (1 Bft)
24.06.2023 05:00 13,9 C 88 % 1020,1 hPa 0,0 l/m 0,0 km/h (0 Bft) N 11,9 C 13,9 C 0,0 km/h (0 Bft)
24.06.2023 06:00 13,1 C 90 % 1020,4 hPa 0,0 l/m 0,0 km/h (0 Bft) N 11,5 C 13,1 C 0,0 km/h (0 Bft)
24.06.2023 07:00 13,2 C 90 % 1020,5 hPa 0,0 l/m 0,0 km/h (0 Bft) N 11,6 C 13,2 C 0,0 km/h (0 Bft)
24.06.2023 08:00 15,1 C 85 % 1020,4 hPa 0,0 l/m 0,0 km/h (0 Bft) O-SO 12,6 C 15,1 C 0,0 km/h (0 Bft)
24.06.2023 09:00 17,8 C 76 % 1020,9 hPa 0,0 l/m 2,5 km/h (1 Bft) W-NW 13,5 C 17,8 C 2,5 km/h (1 Bft)
24.06.2023 10:00 20,7 C 69 % 1020,5 hPa 0,0 l/m 2,5 km/h (1 Bft) W 14,8 C 20,7 C 3,6 km/h (1 Bft)
24.06.2023 11:00 23,9 C 59 % 1020,2 hPa 0,0 l/m 5,0 km/h (1 Bft) N 15,4 C 23,9 C 6,1 km/h (2 Bft)
24.06.2023 12:00 25,3 C 52 % 1019,7 hPa 0,0 l/m 2,5 km/h (1 Bft) NW 14,7 C 25,3 C 3,6 km/h (1 Bft)
24.06.2023 13:00 27,2 C 47 % 1018,9 hPa 0,0 l/m 5,0 km/h (1 Bft) O 14,9 C 27,2 C 7,2 km/h (2 Bft)
24.06.2023 14:00 28,0 C 38 % 1018,2 hPa 0,0 l/m 5,0 km/h (1 Bft) NO 12,3 C 28,0 C 9,7 km/h (2 Bft)
24.06.2023 15:00 28,6 C 35 % 1017,4 hPa 0,0 l/m 3,6 km/h (1 Bft) N-NO 11,6 C 28,6 C 6,1 km/h (2 Bft)
24.06.2023 16:00 29,6 C 36 % 1017,0 hPa 0,0 l/m 2,5 km/h (1 Bft) N 12,9 C 29,6 C 3,6 km/h (1 Bft)
24.06.2023 17:00 29,3 C 33 % 1016,4 hPa 0,0 l/m 5,0 km/h (1 Bft) N-NO 11,3 C 29,3 C 7,2 km/h (2 Bft)
24.06.2023 18:00 29,8 C 33 % 1015,8 hPa 0,0 l/m 2,5 km/h (1 Bft) N-NO 11,8 C 29,8 C 6,1 km/h (2 Bft)
24.06.2023 19:00 29,5 C 32 % 1015,6 hPa 0,0 l/m 3,6 km/h (1 Bft) O-NO 11,0 C 29,5 C 6,1 km/h (2 Bft)
24.06.2023 20:00 28,4 C 34 % 1015,1 hPa 0,0 l/m 2,5 km/h (1 Bft) NO 11,0 C 28,4 C 6,1 km/h (2 Bft)
24.06.2023 21:00 27,2 C 37 % 1015,0 hPa 0,0 l/m 1,1 km/h (1 Bft) NO 11,2 C 27,2 C 2,5 km/h (1 Bft)
24.06.2023 22:00 23,4 C 51 % 1015,0 hPa 0,0 l/m 1,1 km/h (1 Bft) N 12,7 C 23,4 C 2,5 km/h (1 Bft)
24.06.2023 23:00 20,2 C 63 % 1015,5 hPa 0,0 l/m 0,0 km/h (0 Bft) N 12,9 C 20,2 C 0,0 km/h (0 Bft)
25.06.2023 00:00 17,7 C 73 % 1015,5 hPa 0,0 l/m 0,0 km/h (0 Bft) N 12,8 C 17,7 C 2,5 km/h (1 Bft)
25.06.2023 01:00 18,1 C 70 % 1015,5 hPa 0,0 l/m 0,0 km/h (0 Bft) SO 12,5 C 18,1 C 0,0 km/h (0 Bft)
25.06.2023 02:00 17,9 C 68 % 1015,3 hPa 0,0 l/m 2,5 km/h (1 Bft) SO 11,9 C 17,9 C 3,6 km/h (1 Bft)
25.06.2023 03:00 15,9 C 76 % 1014,7 hPa 0,0 l/m 2,5 km/h (1 Bft) O-NO 11,7 C 15,9 C 3,6 km/h (1 Bft)
25.06.2023 04:00 16,7 C 72 % 1014,3 hPa 0,0 l/m 1,1 km/h (1 Bft) NO 11,6 C 16,7 C 2,5 km/h (1 Bft)
25.06.2023 05:00 14,8 C 79 % 1013,9 hPa 0,0 l/m 1,1 km/h (1 Bft) N 11,2 C 14,8 C 2,5 km/h (1 Bft)
25.06.2023 06:00 13,4 C 86 % 1014,2 hPa 0,0 l/m 0,0 km/h (0 Bft) NO 11,1 C 13,4 C 0,0 km/h (0 Bft)
25.06.2023 07:00 14,0 C 84 % 1013,9 hPa 0,0 l/m 1,1 km/h (1 Bft) NO 11,3 C 14,0 C 2,5 km/h (1 Bft)
25.06.2023 08:00 16,7 C 76 % 1013,9 hPa 0,0 l/m 1,1 km/h (1 Bft) N 12,4 C 16,7 C 3,6 km/h (1 Bft)
25.06.2023 09:00 19,6 C 67 % 1013,8 hPa 0,0 l/m 0,0 km/h (0 Bft) W-NW 13,3 C 19,6 C 2,5 km/h (1 Bft)
25.06.2023 10:00 22,7 C 62 % 1013,8 hPa 0,0 l/m 1,1 km/h (1 Bft) NW 15,0 C 22,7 C 2,5 km/h (1 Bft)
25.06.2023 11:00 25,5 C 54 % 1013,5 hPa 0,0 l/m 2,5 km/h (1 Bft) N-NW 15,5 C 25,5 C 3,6 km/h (1 Bft)
25.06.2023 12:00 27,3 C 41 % 1013,3 hPa 0,0 l/m 2,5 km/h (1 Bft) W-SW 12,9 C 27,3 C 3,6 km/h (1 Bft)
25.06.2023 13:00 29,4 C 38 % 1012,7 hPa 0,0 l/m 5,0 km/h (1 Bft) W-NW 13,6 C 29,4 C 7,2 km/h (2 Bft)
25.06.2023 14:00 30,1 C 36 % 1012,2 hPa 0,0 l/m 3,6 km/h (1 Bft) N-NO 13,4 C 30,1 C 6,1 km/h (2 Bft)
25.06.2023 15:00 30,6 C 37 % 1012,0 hPa 0,0 l/m 2,5 km/h (1 Bft) N-NO 14,2 C 30,6 C 6,1 km/h (2 Bft)
25.06.2023 16:00 30,7 C 35 % 1011,6 hPa 0,0 l/m 3,6 km/h (1 Bft) NW 13,5 C 30,7 C 9,7 km/h (2 Bft)
25.06.2023 17:00 32,3 C 33 % 1011,3 hPa 0,0 l/m 1,1 km/h (1 Bft) W 13,9 C 32,3 C 3,6 km/h (1 Bft)
25.06.2023 18:00 32,4 C 32 % 1010,7 hPa 0,0 l/m 3,6 km/h (1 Bft) W 13,6 C 32,4 C 6,1 km/h (2 Bft)
25.06.2023 19:00 31,7 C 35 % 1010,4 hPa 0,0 l/m 5,0 km/h (1 Bft) W 14,3 C 31,7 C 6,1 km/h (2 Bft)
25.06.2023 20:00 30,2 C 41 % 1010,4 hPa 0,0 l/m 2,5 km/h (1 Bft) N 15,5 C 30,2 C 3,6 km/h (1 Bft)
25.06.2023 21:00 29,1 C 43 % 1010,6 hPa 0,0 l/m 0,0 km/h (0 Bft) N 15,2 C 29,1 C 2,5 km/h (1 Bft)
25.06.2023 22:00 24,6 C 60 % 1010,7 hPa 0,0 l/m 1,1 km/h (1 Bft) N-NO 16,3 C 24,6 C 2,5 km/h (1 Bft)
25.06.2023 23:00 21,9 C 68 % 1011,3 hPa 0,0 l/m 1,1 km/h (1 Bft) N 15,7 C 21,9 C 3,6 km/h (1 Bft)
Min-Datum _ 24.06.23 24.06.23 20.06.23 - 19.06.23 - 24.06.23 24.06.23 19.06.23
_ Min-Zeit 06:21 19:21 18:21 - 02:21 - 20:21 06:21 02:21
Minimum _ 13,1 C 32 % 1006,3 hPa - 0,0 km/h (0 Bft) - 11,0 C 13,1 C 0,0 km/h (0 Bft)
Max-Datum _ 20.06.23 23.06.23 24.06.23 22.06.23 20.06.23 - 22.06.23 20.06.23 23.06.23
_ Max-Zeit 17:21 03:21 09:21 21:21 12:21 - 14:21 17:21 01:21
Maximum _ 33,4 C 99 % 1020,9 hPa 4,2 l/m 9,7 km/h
W (2 Bft)
- 21,6 C 33,4 C 18,4 km/h
W (3 Bft)
Durchschnitt _ 22,8 C 69 % 1012,7 hPa #28,2 l/m 2,3 km/h (1 Bft) W 16,0 C 22,8 C 4,1 km/h (1 Bft)
www.sexauwetter.de